Time;durP1;ratioP1;P1;durP2;ratioP2;P2;SDS_P1;SDS_P2;PMS_P1;PMS_P2;Temp;Humidity;BMP_temperature;BMP_pressure;BME280_temperature;BME280_humidity;BME280_pressure;Samples;Min_cycle;Max_cycle;Signal;HPM_P1;HPM_P2
2023/04/26 00:02:14;;;;;;;12.20;6.90;;;;;;;;;;4937925;29;20743;-61
2023/04/26 00:04:42;;;;;;;18.65;9.77;;;;;;;;;;4937972;29;20269;-61
2023/04/26 00:07:12;;;;;;;15.48;8.50;;;;;;;;;;4940265;29;20287;-60
2023/04/26 00:09:43;;;;;;;16.10;9.13;;;;;;;;;;4939130;29;20208;-59
2023/04/26 00:12:11;;;;;;;16.02;8.75;;;;;;;;;;4939119;29;20256;-61
2023/04/26 00:14:41;;;;;;;9.55;7.38;;;;;;;;;;4938576;29;20196;-60
2023/04/26 00:17:09;;;;;;;12.98;8.00;;;;;;;;;;4919841;29;20217;-59
2023/04/26 00:19:38;;;;;;;20.30;10.95;;;;;;;;;;4919813;29;20257;-60
2023/04/26 00:22:07;;;;;;;16.52;10.70;;;;;;;;;;4920384;29;20258;-59
2023/04/26 00:24:35;;;;;;;29.35;16.30;;;;;;;;;;4920065;29;20244;-59
2023/04/26 00:27:08;;;;;;;8.95;7.60;;;;;;;;;;4919859;29;20209;-60
2023/04/26 00:29:36;;;;;;;9.45;7.50;;;;;;;;;;4919657;29;20220;-60
2023/04/26 00:32:06;;;;;;;11.60;8.57;;;;;;;;;;4927923;29;20648;-59
2023/04/26 00:34:34;;;;;;;13.27;7.63;;;;;;;;;;4938947;29;20204;-60
2023/04/26 00:37:03;;;;;;;9.52;6.45;;;;;;;;;;4938715;29;20335;-61
2023/04/26 00:39:31;;;;;;;15.13;7.47;;;;;;;;;;4938356;29;20239;-60
2023/04/26 00:42:00;;;;;;;25.27;7.45;;;;;;;;;;4938782;29;20276;-59
2023/04/26 00:44:28;;;;;;;13.65;8.32;;;;;;;;;;4938761;29;20217;-60
2023/04/26 00:46:57;;;;;;;13.57;9.13;;;;;;;;;;4938173;29;20232;-59
2023/04/26 00:49:26;;;;;;;11.50;7.57;;;;;;;;;;4938318;29;20196;-60
2023/04/26 00:51:55;;;;;;;11.07;8.30;;;;;;;;;;4938453;29;20201;-61
2023/04/26 00:54:25;;;;;;;10.32;7.65;;;;;;;;;;4937974;29;20208;-61
2023/04/26 00:56:54;;;;;;;10.20;8.00;;;;;;;;;;4937884;29;20200;-59
2023/04/26 00:59:24;;;;;;;7.70;6.82;;;;;;;;;;4920200;29;20205;-60
2023/04/26 01:01:52;;;;;;;10.48;7.65;;;;;;;;;;4934040;29;20204;-63
2023/04/26 01:04:24;;;;;;;6.90;6.25;;;;;;;;;;4926429;29;20201;-63
2023/04/26 01:06:54;;;;;;;9.23;7.68;;;;;;;;;;4916960;29;20585;-63
2023/04/26 01:09:23;;;;;;;7.88;6.88;;;;;;;;;;4933280;29;20267;-61
2023/04/26 01:11:55;;;;;;;9.13;6.65;;;;;;;;;;4934099;29;20204;-62
2023/04/26 01:14:23;;;;;;;8.38;6.50;;;;;;;;;;4929943;29;20193;-61
2023/04/26 01:16:52;;;;;;;10.20;7.05;;;;;;;;;;4934098;29;20293;-64
2023/04/26 01:19:20;;;;;;;8.00;6.47;;;;;;;;;;4933456;29;20200;-60
2023/04/26 01:21:49;;;;;;;9.00;6.60;;;;;;;;;;4918969;29;20212;-60
2023/04/26 01:24:20;;;;;;;7.65;5.90;;;;;;;;;;4914977;29;20216;-60
2023/04/26 01:26:49;;;;;;;6.78;6.07;;;;;;;;;;4914819;29;20217;-61
2023/04/26 01:29:17;;;;;;;10.27;6.53;;;;;;;;;;4928162;29;20207;-61
2023/04/26 01:31:46;;;;;;;9.10;6.30;;;;;;;;;;4932714;29;20200;-61
2023/04/26 01:34:14;;;;;;;11.10;6.97;;;;;;;;;;4933409;29;20578;-61
2023/04/26 01:36:42;;;;;;;9.10;5.75;;;;;;;;;;4933317;29;20208;-61
2023/04/26 01:39:11;;;;;;;9.45;5.93;;;;;;;;;;4933573;29;20698;-61
2023/04/26 01:41:41;;;;;;;10.82;6.88;;;;;;;;;;4932381;29;20577;-60
2023/04/26 01:44:09;;;;;;;6.95;6.10;;;;;;;;;;4933336;29;20615;-60
2023/04/26 01:46:37;;;;;;;9.30;6.07;;;;;;;;;;4932818;29;20283;-61
2023/04/26 01:49:05;;;;;;;10.85;6.45;;;;;;;;;;4915849;29;20205;-61
2023/04/26 01:51:35;;;;;;;6.72;5.97;;;;;;;;;;4933277;29;20243;-61
2023/04/26 01:54:03;;;;;;;10.60;6.25;;;;;;;;;;4932535;29;20208;-60
2023/04/26 01:56:33;;;;;;;10.55;5.60;;;;;;;;;;4932810;29;20203;-61
2023/04/26 01:59:04;;;;;;;8.25;5.45;;;;;;;;;;4915707;29;20668;-62
2023/04/26 02:01:32;;;;;;;9.52;5.70;;;;;;;;;;4915520;29;20558;-62
2023/04/26 02:04:00;;;;;;;10.02;5.32;;;;;;;;;;4932088;29;20212;-61
2023/04/26 02:06:28;;;;;;;9.68;6.63;;;;;;;;;;4932831;29;20220;-62
2023/04/26 02:08:57;;;;;;;6.22;5.63;;;;;;;;;;4932936;29;20656;-61
2023/04/26 02:11:25;;;;;;;8.00;5.93;;;;;;;;;;4931547;29;20231;-62
2023/04/26 02:13:54;;;;;;;8.00;6.20;;;;;;;;;;4930326;29;20606;-62
2023/04/26 02:16:24;;;;;;;6.65;5.95;;;;;;;;;;4933103;29;20547;-63
2023/04/26 02:18:53;;;;;;;13.52;6.72;;;;;;;;;;4932938;29;20209;-64
2023/04/26 02:21:21;;;;;;;9.75;5.72;;;;;;;;;;4926537;29;20229;-61
2023/04/26 02:23:50;;;;;;;9.68;5.68;;;;;;;;;;4917827;29;20205;-61
2023/04/26 02:26:18;;;;;;;12.98;6.65;;;;;;;;;;4917714;29;20221;-62
2023/04/26 02:28:46;;;;;;;9.40;6.57;;;;;;;;;;4916364;29;20206;-63
2023/04/26 02:31:15;;;;;;;13.32;9.43;;;;;;;;;;4917502;29;20216;-62
2023/04/26 02:33:45;;;;;;;19.63;12.85;;;;;;;;;;4930427;29;20664;-62
2023/04/26 02:36:13;;;;;;;15.93;11.63;;;;;;;;;;4903743;29;20217;-62
2023/04/26 02:38:42;;;;;;;16.65;8.48;;;;;;;;;;4935311;29;20220;-64
2023/04/26 02:41:10;;;;;;;11.07;9.05;;;;;;;;;;4915488;29;20237;-62
2023/04/26 02:43:38;;;;;;;11.90;8.73;;;;;;;;;;4905303;29;20566;-62
2023/04/26 02:46:07;;;;;;;7.25;5.93;;;;;;;;;;4915933;29;20225;-62
2023/04/26 02:48:35;;;;;;;10.13;7.25;;;;;;;;;;4914880;29;20205;-62
2023/04/26 02:51:05;;;;;;;6.43;5.82;;;;;;;;;;4916931;29;20213;-62
2023/04/26 02:53:34;;;;;;;8.07;6.40;;;;;;;;;;4915859;29;20214;-62
2023/04/26 02:56:02;;;;;;;6.30;5.78;;;;;;;;;;4917535;29;20209;-62
2023/04/26 02:58:30;;;;;;;5.88;5.28;;;;;;;;;;4924195;29;20313;-62
2023/04/26 03:00:59;;;;;;;9.13;6.15;;;;;;;;;;4916875;29;20223;-62
2023/04/26 03:03:27;;;;;;;10.02;7.03;;;;;;;;;;4914534;29;20212;-62
2023/04/26 03:05:55;;;;;;;16.25;9.60;;;;;;;;;;4916189;29;20202;-62
2023/04/26 03:08:25;;;;;;;12.30;8.57;;;;;;;;;;4916635;29;20211;-63
2023/04/26 03:10:53;;;;;;;9.38;6.35;;;;;;;;;;4915664;29;20208;-62
2023/04/26 03:13:23;;;;;;;12.25;7.80;;;;;;;;;;4916337;29;20207;-61
2023/04/26 03:15:52;;;;;;;20.63;11.43;;;;;;;;;;4914493;29;20220;-62
2023/04/26 03:18:23;;;;;;;53.33;31.92;;;;;;;;;;4884480;29;20198;-61
2023/04/26 03:20:51;;;;;;;62.70;36.33;;;;;;;;;;4915255;29;20244;-61
2023/04/26 03:23:22;;;;;;;12.80;8.25;;;;;;;;;;4916918;29;20225;-61
2023/04/26 03:25:52;;;;;;;7.28;5.75;;;;;;;;;;4914651;29;20621;-62
2023/04/26 03:28:20;;;;;;;9.80;5.40;;;;;;;;;;4914676;29;20202;-61
2023/04/26 03:30:49;;;;;;;7.68;6.13;;;;;;;;;;4913972;29;20570;-62
2023/04/26 03:33:18;;;;;;;7.40;6.47;;;;;;;;;;4914521;29;20206;-62
2023/04/26 03:35:46;;;;;;;10.35;6.50;;;;;;;;;;4914500;29;20264;-62
2023/04/26 03:38:14;;;;;;;8.90;7.65;;;;;;;;;;4914187;29;20204;-62
2023/04/26 03:40:42;;;;;;;22.58;14.88;;;;;;;;;;4913556;29;20243;-61
2023/04/26 03:43:12;;;;;;;77.80;41.33;;;;;;;;;;4914817;29;20201;-60
2023/04/26 03:45:40;;;;;;;18.63;11.75;;;;;;;;;;4915017;29;20216;-61
2023/04/26 03:48:08;;;;;;;28.02;17.15;;;;;;;;;;4910356;29;20225;-60
2023/04/26 03:50:38;;;;;;;11.15;8.25;;;;;;;;;;4895310;29;20678;-61
2023/04/26 03:53:06;;;;;;;85.72;42.70;;;;;;;;;;4912585;29;20205;-61
2023/04/26 03:55:35;;;;;;;157.93;68.38;;;;;;;;;;4914504;29;20214;-61
2023/04/26 03:58:06;;;;;;;109.93;49.25;;;;;;;;;;4915789;29;20223;-61
2023/04/26 04:00:37;;;;;;;89.75;34.20;;;;;;;;;;4916011;29;20198;-61
2023/04/26 04:03:06;;;;;;;156.18;64.72;;;;;;;;;;4913833;29;20196;-61
2023/04/26 04:05:34;;;;;;;14.90;10.15;;;;;;;;;;4895596;29;20202;-61
2023/04/26 04:08:02;;;;;;;80.05;42.22;;;;;;;;;;4915276;29;20597;-61
2023/04/26 04:10:31;;;;;;;47.20;25.88;;;;;;;;;;4898831;29;20201;-61
2023/04/26 04:13:00;;;;;;;8.80;6.63;;;;;;;;;;4931319;29;20209;-61
2023/04/26 04:15:30;;;;;;;6.30;4.75;;;;;;;;;;4933406;29;20209;-61
2023/04/26 04:18:00;;;;;;;107.63;59.85;;;;;;;;;;4919716;29;20209;-62
2023/04/26 04:20:28;;;;;;;7.07;6.00;;;;;;;;;;4913982;29;20588;-61
2023/04/26 04:22:58;;;;;;;8.82;7.50;;;;;;;;;;4904476;29;20205;-61
2023/04/26 04:25:26;;;;;;;9.45;6.53;;;;;;;;;;4915251;29;20209;-61
2023/04/26 04:27:57;;;;;;;8.68;6.40;;;;;;;;;;4913429;29;20221;-61
2023/04/26 04:30:26;;;;;;;9.45;8.13;;;;;;;;;;4926990;29;20213;-60
2023/04/26 04:32:54;;;;;;;7.40;6.28;;;;;;;;;;4919231;29;20225;-62
2023/04/26 04:35:27;;;;;;;9.43;7.55;;;;;;;;;;4913720;29;20212;-61
2023/04/26 04:37:56;;;;;;;10.32;8.57;;;;;;;;;;4913694;29;20228;-60
2023/04/26 04:40:25;;;;;;;13.25;9.32;;;;;;;;;;4921630;29;20233;-60
2023/04/26 04:42:54;;;;;;;18.05;9.18;;;;;;;;;;4909911;29;20318;-61
2023/04/26 04:45:23;;;;;;;14.63;7.68;;;;;;;;;;4919978;29;20565;-62
2023/04/26 04:47:55;;;;;;;14.88;7.80;;;;;;;;;;4917359;29;20196;-61
2023/04/26 04:50:24;;;;;;;11.52;7.50;;;;;;;;;;4916108;29;20581;-62
2023/04/26 04:52:52;;;;;;;13.95;7.90;;;;;;;;;;4916643;29;20205;-63
2023/04/26 04:55:21;;;;;;;10.30;7.13;;;;;;;;;;4915305;29;20205;-62
2023/04/26 04:57:49;;;;;;;10.23;7.68;;;;;;;;;;4932831;29;20220;-62
2023/04/26 05:00:18;;;;;;;7.68;6.70;;;;;;;;;;4915079;29;20580;-61
2023/04/26 05:02:51;;;;;;;9.32;7.35;;;;;;;;;;4916120;29;20209;-60
2023/04/26 05:05:20;;;;;;;11.85;7.80;;;;;;;;;;4923584;29;20209;-61
2023/04/26 05:07:50;;;;;;;18.75;15.90;;;;;;;;;;4910869;29;20652;-60
2023/04/26 05:10:18;;;;;;;13.95;10.07;;;;;;;;;;4925870;29;20635;-61
2023/04/26 05:12:47;;;;;;;18.25;7.30;;;;;;;;;;4918016;29;20204;-61
2023/04/26 05:15:15;;;;;;;13.88;7.35;;;;;;;;;;4920984;29;20205;-62
2023/04/26 05:17:43;;;;;;;10.43;6.35;;;;;;;;;;4933595;29;20231;-61
2023/04/26 05:20:19;;;;;;;8.15;7.38;;;;;;;;;;4916470;29;20290;-61
2023/04/26 05:22:47;;;;;;;11.60;7.25;;;;;;;;;;4915921;29;20656;-63
2023/04/26 05:25:17;;;;;;;8.30;6.97;;;;;;;;;;4932894;29;20205;-62
2023/04/26 05:27:49;;;;;;;11.00;7.35;;;;;;;;;;4917097;29;20189;-62
2023/04/26 05:30:46;;;;;;;13.98;6.47;;;;;;;;;;4884856;29;20210;-62
2023/04/26 05:33:27;;;;;;;9.63;6.75;;;;;;;;;;4920899;29;20205;-62
2023/04/26 05:35:58;;;;;;;7.32;5.95;;;;;;;;;;4914902;29;20189;-63
2023/04/26 05:38:26;;;;;;;8.73;5.57;;;;;;;;;;4932679;29;20531;-60
2023/04/26 05:40:56;;;;;;;6.40;5.35;;;;;;;;;;4916538;29;20705;-61
2023/04/26 05:43:25;;;;;;;5.90;5.32;;;;;;;;;;4916635;29;20201;-61
2023/04/26 05:45:53;;;;;;;8.02;6.80;;;;;;;;;;4927757;29;20868;-63
2023/04/26 05:48:22;;;;;;;7.53;6.82;;;;;;;;;;4928339;29;20220;-64
2023/04/26 05:50:51;;;;;;;18.40;7.43;;;;;;;;;;4917504;29;20217;-63
2023/04/26 05:53:20;;;;;;;11.98;7.05;;;;;;;;;;4934165;29;20213;-65
2023/04/26 05:55:49;;;;;;;8.00;6.05;;;;;;;;;;4936172;29;20213;-65
2023/04/26 05:58:19;;;;;;;12.23;8.18;;;;;;;;;;4921030;29;20224;-63
2023/04/26 06:00:47;;;;;;;11.23;8.05;;;;;;;;;;4905332;29;20196;-62
2023/04/26 06:03:16;;;;;;;9.52;8.52;;;;;;;;;;4919218;29;20208;-62
2023/04/26 06:05:44;;;;;;;7.30;6.38;;;;;;;;;;4936157;29;20204;-63
2023/04/26 06:08:12;;;;;;;8.80;6.88;;;;;;;;;;4903485;29;20742;-63
2023/04/26 06:10:41;;;;;;;9.15;7.25;;;;;;;;;;4936895;29;20214;-63
2023/04/26 06:13:09;;;;;;;11.00;7.00;;;;;;;;;;4938534;29;20754;-63
2023/04/26 06:15:40;;;;;;;7.45;6.30;;;;;;;;;;4956074;29;20576;-63
2023/04/26 06:18:08;;;;;;;14.57;7.70;;;;;;;;;;4938656;29;20220;-63
2023/04/26 06:20:36;;;;;;;11.57;6.07;;;;;;;;;;4939158;29;20567;-63
2023/04/26 06:23:08;;;;;;;14.68;6.30;;;;;;;;;;4922880;29;20554;-65
2023/04/26 06:25:37;;;;;;;8.93;5.53;;;;;;;;;;4955571;29;20214;-64
2023/04/26 06:28:05;;;;;;;8.95;5.35;;;;;;;;;;4938460;29;20200;-64
2023/04/26 06:30:34;;;;;;;6.80;4.90;;;;;;;;;;4921958;29;20215;-64
2023/04/26 06:33:03;;;;;;;11.00;5.45;;;;;;;;;;4919931;29;20227;-65
2023/04/26 06:35:33;;;;;;;13.85;5.25;;;;;;;;;;4919642;29;20309;-64
2023/04/26 06:38:01;;;;;;;5.38;4.13;;;;;;;;;;4919644;29;20287;-63
2023/04/26 06:40:29;;;;;;;8.38;4.30;;;;;;;;;;4930690;29;20767;-63
2023/04/26 06:42:58;;;;;;;5.75;4.05;;;;;;;;;;4907005;29;20555;-63
2023/04/26 06:46:01;;;;;;;9.32;4.65;;;;;;;;;;4892984;29;20219;-66
2023/04/26 06:48:31;;;;;;;5.45;4.93;;;;;;;;;;4916180;29;20219;-65
2023/04/26 06:50:59;;;;;;;10.93;4.95;;;;;;;;;;4916599;29;20209;-65
2023/04/26 06:53:28;;;;;;;11.32;4.10;;;;;;;;;;4917595;29;20209;-64
2023/04/26 06:55:57;;;;;;;9.77;4.40;;;;;;;;;;4914425;29;20268;-64
2023/04/26 06:58:25;;;;;;;4.60;4.20;;;;;;;;;;4938539;29;20220;-63
2023/04/26 07:00:53;;;;;;;4.80;4.40;;;;;;;;;;4945930;29;20200;-64
2023/04/26 07:03:21;;;;;;;6.15;5.05;;;;;;;;;;4933837;29;20670;-63
2023/04/26 07:05:51;;;;;;;6.22;4.30;;;;;;;;;;4915956;29;20231;-64
2023/04/26 07:08:20;;;;;;;7.00;4.90;;;;;;;;;;4928054;29;20763;-64
2023/04/26 07:10:48;;;;;;;5.72;3.92;;;;;;;;;;4901142;29;20205;-64
2023/04/26 07:13:16;;;;;;;6.13;4.82;;;;;;;;;;4916811;29;20669;-64
2023/04/26 07:15:44;;;;;;;10.90;5.32;;;;;;;;;;4916568;29;20205;-65
2023/04/26 07:18:12;;;;;;;9.57;4.45;;;;;;;;;;4916535;29;20233;-65
2023/04/26 07:20:41;;;;;;;4.43;4.10;;;;;;;;;;4900137;29;20229;-65
2023/04/26 07:23:10;;;;;;;6.55;4.78;;;;;;;;;;4911443;29;20674;-65
2023/04/26 07:25:38;;;;;;;8.05;5.50;;;;;;;;;;4935575;29;20577;-65
2023/04/26 07:28:07;;;;;;;6.03;4.38;;;;;;;;;;4935750;29;20577;-64
2023/04/26 07:30:35;;;;;;;9.80;6.15;;;;;;;;;;4935063;29;20675;-65
2023/04/26 07:33:03;;;;;;;7.82;6.40;;;;;;;;;;4918870;29;20333;-65
2023/04/26 07:35:34;;;;;;;6.05;4.90;;;;;;;;;;4935865;29;20717;-63
2023/04/26 07:38:03;;;;;;;7.93;5.15;;;;;;;;;;4935083;29;20197;-64
2023/04/26 07:40:32;;;;;;;9.73;5.55;;;;;;;;;;4936244;29;20240;-65
2023/04/26 07:43:00;;;;;;;8.70;5.88;;;;;;;;;;4935491;29;20213;-65
2023/04/26 07:45:29;;;;;;;8.88;6.18;;;;;;;;;;4921410;29;20655;-64
2023/04/26 07:47:57;;;;;;;6.85;6.25;;;;;;;;;;4937239;29;20203;-64
2023/04/26 07:50:25;;;;;;;10.30;5.80;;;;;;;;;;4954970;29;20288;-64
2023/04/26 07:52:54;;;;;;;7.93;6.03;;;;;;;;;;4954675;29;20207;-64
2023/04/26 07:55:22;;;;;;;8.10;5.38;;;;;;;;;;4954678;29;20215;-66
2023/04/26 07:57:51;;;;;;;7.97;6.15;;;;;;;;;;4952708;29;20588;-64
2023/04/26 08:00:21;;;;;;;9.63;6.40;;;;;;;;;;4936060;29;20221;-64
2023/04/26 08:02:49;;;;;;;8.68;6.10;;;;;;;;;;4933993;29;20275;-65
2023/04/26 08:05:17;;;;;;;9.90;6.45;;;;;;;;;;4944738;29;20205;-64
2023/04/26 08:07:46;;;;;;;8.93;5.28;;;;;;;;;;4952945;29;20722;-64
2023/04/26 08:10:14;;;;;;;9.00;6.47;;;;;;;;;;4955580;29;20203;-64
2023/04/26 08:12:42;;;;;;;10.30;7.78;;;;;;;;;;4954169;29;20296;-64
2023/04/26 08:15:13;;;;;;;7.40;6.70;;;;;;;;;;4953827;29;20203;-64
2023/04/26 08:17:41;;;;;;;10.52;7.28;;;;;;;;;;4916689;29;20209;-64
2023/04/26 08:20:09;;;;;;;10.68;6.68;;;;;;;;;;4915647;29;20292;-64
2023/04/26 08:22:38;;;;;;;10.75;6.43;;;;;;;;;;4950700;29;20617;-63
2023/04/26 08:25:06;;;;;;;8.20;7.38;;;;;;;;;;4953722;29;20208;-63
2023/04/26 08:27:35;;;;;;;9.15;7.50;;;;;;;;;;4925488;29;20230;-63
2023/04/26 08:30:03;;;;;;;7.97;7.25;;;;;;;;;;4953508;29;20701;-64
2023/04/26 08:32:34;;;;;;;9.95;7.88;;;;;;;;;;4946096;29;20205;-64
2023/04/26 08:35:02;;;;;;;10.80;8.13;;;;;;;;;;4917124;29;20205;-64
2023/04/26 08:37:30;;;;;;;13.38;7.45;;;;;;;;;;4934432;29;20212;-64
2023/04/26 08:39:59;;;;;;;12.38;8.90;;;;;;;;;;4934162;29;20248;-64
2023/04/26 08:42:28;;;;;;;9.80;8.05;;;;;;;;;;4935367;29;20208;-65
2023/04/26 08:44:57;;;;;;;7.78;7.00;;;;;;;;;;4934421;29;20282;-65
2023/04/26 08:47:28;;;;;;;11.32;8.52;;;;;;;;;;4918219;29;20204;-64
2023/04/26 08:50:01;;;;;;;9.48;7.78;;;;;;;;;;4931684;29;20195;-64
2023/04/26 08:52:30;;;;;;;9.77;8.70;;;;;;;;;;4915372;29;20215;-64
2023/04/26 08:54:58;;;;;;;8.40;7.80;;;;;;;;;;4915198;29;20591;-64
2023/04/26 08:57:27;;;;;;;10.48;9.57;;;;;;;;;;4913885;29;20213;-64
2023/04/26 08:59:57;;;;;;;10.27;9.20;;;;;;;;;;4914731;29;20646;-63
2023/04/26 09:02:25;;;;;;;9.57;8.68;;;;;;;;;;4914120;29;20212;-64
2023/04/26 09:04:53;;;;;;;11.20;10.13;;;;;;;;;;4914128;29;20220;-65
2023/04/26 09:07:26;;;;;;;10.77;9.07;;;;;;;;;;4925315;29;20267;-64
2023/04/26 09:09:55;;;;;;;14.07;9.73;;;;;;;;;;4934167;29;20205;-64
2023/04/26 09:12:24;;;;;;;11.30;10.10;;;;;;;;;;4933883;29;20227;-65
2023/04/26 09:14:52;;;;;;;11.70;10.57;;;;;;;;;;4934609;29;20212;-65
2023/04/26 09:17:31;;;;;;;12.57;9.02;;;;;;;;;;4933721;29;20216;-65
2023/04/26 09:20:00;;;;;;;18.25;10.98;;;;;;;;;;4951332;28;20235;-64
2023/04/26 09:22:30;;;;;;;11.85;10.65;;;;;;;;;;4953179;29;20240;-64
2023/04/26 09:24:58;;;;;;;13.18;11.88;;;;;;;;;;4942209;29;20197;-63
2023/04/26 09:27:34;;;;;;;12.40;10.57;;;;;;;;;;4916779;29;20540;-63
2023/04/26 09:30:05;;;;;;;12.32;10.30;;;;;;;;;;4936424;29;20558;-65
2023/04/26 09:32:46;;;;;;;12.20;11.00;;;;;;;;;;4937472;29;20693;-63
2023/04/26 09:35:26;;;;;;;11.35;10.38;;;;;;;;;;4938181;29;20259;-64
2023/04/26 09:37:58;;;;;;;11.63;10.73;;;;;;;;;;4937598;29;20195;-63
2023/04/26 09:40:26;;;;;;;15.70;11.88;;;;;;;;;;4920225;29;20231;-64
2023/04/26 09:42:58;;;;;;;12.03;11.03;;;;;;;;;;4933020;29;20215;-65
2023/04/26 09:45:27;;;;;;;12.00;10.90;;;;;;;;;;4953877;29;20605;-65
2023/04/26 09:47:55;;;;;;;18.07;11.67;;;;;;;;;;4955620;29;20667;-64
2023/04/26 09:50:27;;;;;;;11.73;10.57;;;;;;;;;;4939055;29;20646;-64
2023/04/26 09:52:56;;;;;;;12.27;11.07;;;;;;;;;;4936614;29;20585;-64
2023/04/26 09:55:28;;;;;;;11.27;10.47;;;;;;;;;;4937825;29;20595;-64
2023/04/26 09:57:59;;;;;;;13.90;11.43;;;;;;;;;;4936447;29;20973;-65
2023/04/26 10:00:27;;;;;;;12.17;11.23;;;;;;;;;;4950656;29;20975;-64
2023/04/26 10:02:56;;;;;;;11.93;11.00;;;;;;;;;;4954715;29;20583;-65
2023/04/26 10:05:25;;;;;;;11.37;10.57;;;;;;;;;;4955817;29;20623;-64
2023/04/26 10:07:53;;;;;;;14.23;11.20;;;;;;;;;;4955530;29;20598;-65
2023/04/26 10:10:23;;;;;;;12.30;11.30;;;;;;;;;;4956508;29;20620;-67
2023/04/26 10:12:51;;;;;;;11.90;11.20;;;;;;;;;;4941547;29;20652;-64
2023/04/26 10:15:19;;;;;;;14.03;12.80;;;;;;;;;;4937195;29;20619;-64
2023/04/26 10:17:47;;;;;;;11.90;10.93;;;;;;;;;;4932345;29;20609;-64
2023/04/26 10:20:17;;;;;;;13.57;12.73;;;;;;;;;;4934257;29;20651;-65
2023/04/26 10:22:46;;;;;;;13.07;12.13;;;;;;;;;;4917303;29;20613;-64
2023/04/26 10:25:14;;;;;;;14.83;13.50;;;;;;;;;;4923475;29;20636;-64
2023/04/26 10:27:53;;;;;;;12.93;12.13;;;;;;;;;;4955775;29;20611;-65
2023/04/26 10:30:23;;;;;;;14.23;13.30;;;;;;;;;;4940370;29;20987;-64
2023/04/26 10:33:22;;;;;;;14.37;13.57;;;;;;;;;;4936348;29;20626;-64
2023/04/26 10:36:08;;;;;;;14.30;13.30;;;;;;;;;;4942082;29;20627;-64
2023/04/26 10:38:37;;;;;;;14.50;13.80;;;;;;;;;;4920222;29;21031;-64
2023/04/26 10:41:24;;;;;;;15.30;14.17;;;;;;;;;;4955018;28;20646;-64
2023/04/26 10:43:53;;;;;;;14.30;13.50;;;;;;;;;;4955498;29;20596;-66
2023/04/26 10:46:35;;;;;;;14.07;13.27;;;;;;;;;;4950126;29;21179;-66
2023/04/26 10:49:14;;;;;;;14.70;13.80;;;;;;;;;;4936028;29;20587;-64
2023/04/26 10:52:02;;;;;;;14.70;13.57;;;;;;;;;;4921907;29;20620;-63
2023/04/26 10:54:45;;;;;;;14.40;13.60;;;;;;;;;;4916812;29;20607;-64
2023/04/26 10:57:14;;;;;;;14.30;13.40;;;;;;;;;;4917331;29;20564;-63
2023/04/26 10:59:57;;;;;;;14.43;13.00;;;;;;;;;;4916967;29;20624;-63
2023/04/26 11:02:41;;;;;;;15.10;14.00;;;;;;;;;;4915199;29;20625;-63
2023/04/26 11:05:11;;;;;;;16.60;15.47;;;;;;;;;;4927028;29;20599;-66
2023/04/26 11:07:39;;;;;;;14.30;13.50;;;;;;;;;;4933982;29;20604;-64
2023/04/26 11:10:09;;;;;;;15.60;14.30;;;;;;;;;;4929532;29;20663;-65
2023/04/26 11:12:37;;;;;;;14.87;13.63;;;;;;;;;;4940243;29;20625;-64
2023/04/26 11:15:06;;;;;;;16.20;15.20;;;;;;;;;;4921932;29;20599;-65
2023/04/26 11:17:37;;;;;;;15.93;14.87;;;;;;;;;;4933752;29;21016;-63
2023/04/26 11:20:09;;;;;;;15.53;14.50;;;;;;;;;;4929320;29;20672;-65
2023/04/26 11:22:41;;;;;;;16.03;14.83;;;;;;;;;;4908410;29;20572;-63
2023/04/26 11:25:10;;;;;;;15.50;14.50;;;;;;;;;;4926729;29;20614;-63
2023/04/26 11:27:38;;;;;;;15.07;14.23;;;;;;;;;;4934261;29;20622;-65
2023/04/26 11:30:07;;;;;;;14.23;13.30;;;;;;;;;;4935280;29;20649;-64
2023/04/26 11:32:35;;;;;;;13.70;13.03;;;;;;;;;;4935003;29;20618;-64
2023/04/26 11:35:04;;;;;;;15.07;13.90;;;;;;;;;;4935467;29;20595;-64
2023/04/26 11:37:32;;;;;;;13.20;12.47;;;;;;;;;;4935105;29;20604;-63
2023/04/26 11:40:02;;;;;;;13.33;12.53;;;;;;;;;;4945066;29;20670;-65
2023/04/26 11:42:30;;;;;;;16.30;14.97;;;;;;;;;;4933153;29;20626;-64
2023/04/26 11:45:00;;;;;;;14.90;13.90;;;;;;;;;;4932770;29;21223;-64
2023/04/26 11:47:29;;;;;;;16.23;15.23;;;;;;;;;;4932625;29;20619;-63
2023/04/26 11:49:58;;;;;;;14.90;13.90;;;;;;;;;;4931404;29;20591;-64
2023/04/26 11:52:27;;;;;;;14.87;13.70;;;;;;;;;;4932434;29;20600;-64
2023/04/26 11:55:04;;;;;;;14.27;13.50;;;;;;;;;;4930608;29;20687;-63
2023/04/26 11:57:34;;;;;;;14.60;13.80;;;;;;;;;;4933462;29;20579;-64
2023/04/26 12:00:13;;;;;;;14.30;13.50;;;;;;;;;;4932704;29;20602;-63
2023/04/26 12:02:44;;;;;;;15.20;14.27;;;;;;;;;;4929543;29;20646;-64
2023/04/26 12:05:24;;;;;;;15.73;14.60;;;;;;;;;;4933819;29;20607;-64
2023/04/26 12:07:54;;;;;;;16.33;15.33;;;;;;;;;;4934462;29;20602;-64
2023/04/26 12:10:25;;;;;;;16.17;15.27;;;;;;;;;;4934269;29;20738;-65
2023/04/26 12:12:55;;;;;;;16.83;15.33;;;;;;;;;;4932849;29;20906;-63
2023/04/26 12:15:24;;;;;;;13.70;13.00;;;;;;;;;;4932158;29;20653;-64
2023/04/26 12:17:56;;;;;;;15.40;14.50;;;;;;;;;;4929182;29;20641;-65
2023/04/26 12:20:32;;;;;;;15.63;14.50;;;;;;;;;;4928787;29;20711;-66
2023/04/26 12:23:04;;;;;;;14.70;13.70;;;;;;;;;;4943826;29;20594;-64
2023/04/26 12:25:35;;;;;;;15.50;14.60;;;;;;;;;;4934702;29;20641;-65
2023/04/26 12:28:04;;;;;;;15.77;14.83;;;;;;;;;;4934606;29;20591;-64
2023/04/26 12:30:32;;;;;;;14.43;13.73;;;;;;;;;;4934739;29;20629;-66
2023/04/26 12:33:04;;;;;;;15.83;14.93;;;;;;;;;;4932991;29;20670;-64
2023/04/26 12:35:32;;;;;;;15.07;14.07;;;;;;;;;;4929974;29;20672;-65
2023/04/26 12:38:01;;;;;;;16.77;15.30;;;;;;;;;;4933481;29;20599;-64
2023/04/26 12:40:29;;;;;;;17.20;16.00;;;;;;;;;;4934014;29;20633;-65
2023/04/26 12:42:59;;;;;;;19.77;17.70;;;;;;;;;;4931501;29;20625;-65
2023/04/26 12:45:28;;;;;;;15.80;14.87;;;;;;;;;;4932027;29;20654;-63
2023/04/26 12:47:56;;;;;;;16.73;15.30;;;;;;;;;;4933604;29;20597;-65
2023/04/26 12:50:25;;;;;;;15.13;14.37;;;;;;;;;;4933213;29;20628;-64
2023/04/26 12:52:53;;;;;;;16.60;15.50;;;;;;;;;;4930281;29;20635;-65
2023/04/26 12:55:21;;;;;;;16.33;15.33;;;;;;;;;;4932035;29;20642;-64
2023/04/26 12:57:50;;;;;;;15.93;14.90;;;;;;;;;;4913999;29;20594;-63
2023/04/26 13:00:20;;;;;;;16.47;15.13;;;;;;;;;;4932614;29;20644;-64
2023/04/26 13:02:48;;;;;;;15.83;14.73;;;;;;;;;;4932388;29;20947;-64
2023/04/26 13:05:16;;;;;;;16.87;15.73;;;;;;;;;;4931375;29;20620;-64
2023/04/26 13:07:45;;;;;;;15.20;14.40;;;;;;;;;;4932529;29;20617;-64
2023/04/26 13:10:13;;;;;;;15.30;14.50;;;;;;;;;;4904732;29;20608;-64
2023/04/26 13:12:41;;;;;;;15.70;14.53;;;;;;;;;;4915289;29;21474;-64
2023/04/26 13:15:10;;;;;;;14.57;13.60;;;;;;;;;;4914450;29;20644;-63
2023/04/26 13:17:41;;;;;;;15.20;14.30;;;;;;;;;;4914644;29;20684;-64
2023/04/26 13:20:10;;;;;;;15.67;14.27;;;;;;;;;;4914351;29;21284;-63
2023/04/26 13:22:41;;;;;;;15.30;14.23;;;;;;;;;;4915516;29;20621;-63
2023/04/26 13:25:09;;;;;;;17.27;15.43;;;;;;;;;;4915183;29;20586;-64
2023/04/26 13:27:38;;;;;;;14.50;13.60;;;;;;;;;;4924382;29;20636;-64
2023/04/26 13:30:07;;;;;;;15.23;14.23;;;;;;;;;;4933674;29;21209;-65
2023/04/26 13:32:35;;;;;;;14.87;13.97;;;;;;;;;;4933942;29;20663;-63
2023/04/26 13:35:06;;;;;;;15.63;14.73;;;;;;;;;;4933244;29;20993;-64
2023/04/26 13:37:34;;;;;;;15.17;14.27;;;;;;;;;;4932711;29;20628;-64
2023/04/26 13:40:03;;;;;;;15.23;14.27;;;;;;;;;;4932979;29;20630;-64
2023/04/26 13:42:31;;;;;;;16.10;15.07;;;;;;;;;;4936749;29;20640;-64
2023/04/26 13:45:04;;;;;;;15.20;14.20;;;;;;;;;;4929434;29;20637;-65
2023/04/26 13:47:33;;;;;;;15.40;14.60;;;;;;;;;;4932089;29;20626;-63
2023/04/26 13:50:01;;;;;;;15.53;14.50;;;;;;;;;;4932748;29;21170;-63
2023/04/26 13:52:34;;;;;;;15.23;14.03;;;;;;;;;;4926336;29;20636;-64
2023/04/26 13:55:03;;;;;;;13.60;12.90;;;;;;;;;;4927524;29;20961;-64
2023/04/26 13:57:31;;;;;;;14.60;13.80;;;;;;;;;;4931745;29;20644;-63
2023/04/26 13:59:59;;;;;;;16.83;15.93;;;;;;;;;;4931572;29;20622;-63
2023/04/26 14:02:28;;;;;;;16.33;15.17;;;;;;;;;;4929472;29;20607;-63
2023/04/26 14:04:56;;;;;;;14.93;13.93;;;;;;;;;;4929545;29;21225;-67
2023/04/26 14:07:25;;;;;;;15.97;14.53;;;;;;;;;;4931749;29;20633;-67
2023/04/26 14:09:54;;;;;;;16.03;15.03;;;;;;;;;;4930948;29;20629;-67
2023/04/26 14:12:22;;;;;;;16.77;15.27;;;;;;;;;;4931733;29;20671;-69
2023/04/26 14:14:51;;;;;;;15.87;14.77;;;;;;;;;;4931477;29;21512;-67
2023/04/26 14:17:19;;;;;;;15.20;14.30;;;;;;;;;;4941208;29;20943;-69
2023/04/26 14:19:48;;;;;;;15.80;14.70;;;;;;;;;;4930446;29;21005;-67
2023/04/26 14:22:16;;;;;;;17.10;16.10;;;;;;;;;;4931760;29;20682;-68
2023/04/26 14:24:44;;;;;;;16.27;15.27;;;;;;;;;;4930824;29;20633;-69
2023/04/26 14:27:14;;;;;;;15.33;14.53;;;;;;;;;;4917121;29;20621;-68
2023/04/26 14:29:42;;;;;;;16.03;15.13;;;;;;;;;;4915559;29;20640;-68
2023/04/26 14:32:10;;;;;;;16.43;15.33;;;;;;;;;;4917411;29;21273;-69
2023/04/26 14:34:39;;;;;;;15.70;14.50;;;;;;;;;;4917053;29;20621;-68
2023/04/26 14:37:07;;;;;;;16.03;15.07;;;;;;;;;;4916887;29;20627;-69
2023/04/26 14:39:36;;;;;;;16.23;15.43;;;;;;;;;;4930849;29;20686;-68
2023/04/26 14:42:04;;;;;;;16.63;15.53;;;;;;;;;;4936320;29;20778;-68
2023/04/26 14:44:35;;;;;;;14.90;14.13;;;;;;;;;;4936251;29;20608;-69